Time;durP1;ratioP1;P1;durP2;ratioP2;P2;SDS_P1;SDS_P2;PMS_P1;PMS_P2;Temp;Humidity;BMP_temperature;BMP_pressure;BME280_temperature;BME280_humidity;BME280_pressure;Samples;Min_cycle;Max_cycle;Signal;HPM_P1;HPM_P2
2021/04/20 00:01:49;;;;;;;18.47;9.37;;;7.00;81.20;;;;;;5028893;28;20407;-80
2021/04/20 00:04:15;;;;;;;16.05;9.48;;;6.90;81.60;;;;;;5028984;28;20379;-81
2021/04/20 00:06:40;;;;;;;16.05;9.23;;;6.90;81.70;;;;;;5029425;28;20399;-80
2021/04/20 00:09:08;;;;;;;15.00;9.00;;;6.70;82.40;;;;;;5028415;28;20383;-81
2021/04/20 00:11:36;;;;;;;15.70;8.95;;;6.70;82.70;;;;;;5030221;28;20472;-80
2021/04/20 00:14:03;;;;;;;17.92;9.20;;;6.60;82.50;;;;;;5029965;28;20906;-79
2021/04/20 00:16:29;;;;;;;17.67;10.20;;;6.70;82.60;;;;;;5028496;28;20730;-79
2021/04/20 00:18:54;;;;;;;17.70;9.50;;;6.60;82.20;;;;;;5028550;28;20394;-82
2021/04/20 00:21:21;;;;;;;17.55;9.43;;;6.70;82.30;;;;;;5029685;28;20506;-80
2021/04/20 00:23:46;;;;;;;16.17;8.75;;;6.60;82.60;;;;;;5028500;28;20899;-80
2021/04/20 00:26:12;;;;;;;16.40;9.27;;;6.60;82.90;;;;;;5028813;28;20407;-79
2021/04/20 00:28:37;;;;;;;14.27;9.00;;;6.50;82.50;;;;;;5029420;28;20395;-79
2021/04/20 00:31:03;;;;;;;16.60;9.53;;;6.60;82.10;;;;;;5029539;28;20469;-79
2021/04/20 00:33:29;;;;;;;18.95;9.35;;;6.50;82.60;;;;;;5028845;28;20392;-80
2021/04/20 00:35:54;;;;;;;17.10;9.02;;;6.40;82.80;;;;;;5029604;28;20952;-79
2021/04/20 00:38:20;;;;;;;17.45;10.45;;;6.40;82.80;;;;;;5028192;28;20482;-79
2021/04/20 00:40:45;;;;;;;18.77;9.75;;;6.40;83.40;;;;;;5029665;28;20437;-79
2021/04/20 00:43:11;;;;;;;15.53;9.60;;;6.30;84.10;;;;;;5028422;28;20449;-79
2021/04/20 00:45:38;;;;;;;17.25;9.63;;;6.40;82.90;;;;;;5028347;28;20802;-80
2021/04/20 00:48:05;;;;;;;16.70;9.23;;;6.40;83.10;;;;;;5029297;28;20752;-79
2021/04/20 00:50:39;;;;;;;17.63;9.90;;;6.40;83.20;;;;;;5027860;28;20820;-80
2021/04/20 00:53:06;;;;;;;16.50;9.38;;;6.20;83.60;;;;;;5028382;28;20395;-79
2021/04/20 00:55:31;;;;;;;15.75;9.38;;;6.10;83.80;;;;;;5033056;28;20525;-80
2021/04/20 00:57:57;;;;;;;18.60;9.57;;;6.10;83.60;;;;;;5032465;28;20763;-81
2021/04/20 01:00:32;;;;;;;17.47;9.70;;;6.10;83.10;;;;;;5033306;28;20378;-79
2021/04/20 01:02:59;;;;;;;18.63;9.95;;;6.10;83.70;;;;;;5032693;28;20479;-80
2021/04/20 01:05:31;;;;;;;18.73;9.82;;;6.20;83.70;;;;;;5032966;28;20478;-80
2021/04/20 01:08:08;;;;;;;16.73;9.43;;;6.10;84.40;;;;;;5032855;28;20399;-81
2021/04/20 01:10:46;;;;;;;20.13;9.68;;;6.10;84.20;;;;;;5031865;28;20419;-79
2021/04/20 01:13:13;;;;;;;17.10;10.57;;;6.10;83.70;;;;;;5031583;28;20478;-79
2021/04/20 01:15:43;;;;;;;16.67;8.88;;;6.00;83.70;;;;;;5032872;28;20445;-80
2021/04/20 01:18:22;;;;;;;16.10;9.38;;;6.10;84.30;;;;;;5032558;28;20501;-80
2021/04/20 01:20:50;;;;;;;19.87;10.07;;;6.00;84.30;;;;;;5032563;28;20390;-81
2021/04/20 01:23:29;;;;;;;18.95;9.27;;;6.10;83.80;;;;;;5033115;28;20430;-81
2021/04/20 01:25:56;;;;;;;18.15;9.13;;;6.10;83.50;;;;;;5031263;28;20410;-79
2021/04/20 01:28:22;;;;;;;15.13;9.10;;;6.10;83.50;;;;;;5032498;28;20463;-79
2021/04/20 01:30:48;;;;;;;16.45;8.55;;;6.10;83.50;;;;;;5032328;28;20498;-80
2021/04/20 01:33:14;;;;;;;17.40;8.63;;;6.00;83.90;;;;;;5031578;28;20441;-80
2021/04/20 01:35:41;;;;;;;16.02;8.63;;;6.00;83.70;;;;;;5030759;28;20387;-82
2021/04/20 01:38:07;;;;;;;15.95;8.80;;;6.00;83.90;;;;;;5032032;28;20387;-80
2021/04/20 01:40:34;;;;;;;17.00;9.23;;;5.90;84.10;;;;;;5032162;28;20395;-80
2021/04/20 01:43:01;;;;;;;18.90;9.50;;;5.80;84.60;;;;;;5032171;28;20388;-81
2021/04/20 01:45:30;;;;;;;18.40;9.30;;;5.70;84.80;;;;;;5032365;28;20383;-80
2021/04/20 01:47:59;;;;;;;16.60;9.27;;;5.90;84.20;;;;;;5030162;28;20712;-80
2021/04/20 01:50:25;;;;;;;18.35;9.15;;;5.80;84.40;;;;;;5032379;28;20411;-80
2021/04/20 01:52:51;;;;;;;16.00;9.70;;;5.70;84.70;;;;;;5030429;28;20387;-81
2021/04/20 01:55:17;;;;;;;18.35;10.02;;;5.70;84.30;;;;;;5030973;28;20957;-82
2021/04/20 01:57:46;;;;;;;16.43;9.73;;;5.70;85.10;;;;;;5032416;28;20390;-80
2021/04/20 02:00:15;;;;;;;17.58;10.07;;;5.80;84.50;;;;;;5030809;28;20417;-80
2021/04/20 02:02:41;;;;;;;16.40;9.20;;;5.70;84.40;;;;;;5030010;28;20883;-80
2021/04/20 02:05:08;;;;;;;21.00;10.18;;;5.70;84.30;;;;;;5030840;28;20399;-81
2021/04/20 02:07:36;;;;;;;19.20;9.80;;;5.70;84.60;;;;;;5031101;28;20657;-80
2021/04/20 02:10:07;;;;;;;18.27;10.00;;;5.50;85.30;;;;;;5030523;28;20414;-79
2021/04/20 02:12:34;;;;;;;18.08;10.02;;;5.60;84.50;;;;;;5030458;28;20408;-81
2021/04/20 02:15:00;;;;;;;18.92;10.05;;;5.60;84.90;;;;;;5030461;28;20391;-80
2021/04/20 02:17:26;;;;;;;18.08;9.45;;;5.60;84.60;;;;;;5029980;28;20387;-79
2021/04/20 02:19:53;;;;;;;16.45;9.70;;;5.60;84.80;;;;;;5031365;28;20387;-80
2021/04/20 02:22:19;;;;;;;20.73;10.85;;;5.60;84.80;;;;;;5030517;28;20407;-81
2021/04/20 02:24:45;;;;;;;19.50;9.82;;;5.60;84.90;;;;;;5030047;28;20387;-82
2021/04/20 02:27:12;;;;;;;17.75;9.52;;;5.50;85.40;;;;;;5030041;28;20402;-81
2021/04/20 02:29:37;;;;;;;15.82;9.13;;;5.50;85.30;;;;;;5031083;28;20391;-80
2021/04/20 02:32:04;;;;;;;17.97;9.57;;;5.50;85.40;;;;;;5031412;28;20380;-80
2021/04/20 02:34:30;;;;;;;17.27;9.73;;;5.40;85.90;;;;;;5030217;28;20395;-80
2021/04/20 02:36:56;;;;;;;17.23;9.17;;;5.40;86.00;;;;;;5030038;28;20387;-80
2021/04/20 02:39:22;;;;;;;19.88;8.77;;;5.50;85.50;;;;;;5031162;28;20389;-80
2021/04/20 02:41:49;;;;;;;18.90;9.53;;;5.50;85.20;;;;;;5029921;28;20415;-80
2021/04/20 02:44:15;;;;;;;16.30;8.65;;;5.50;84.90;;;;;;5029825;28;20419;-80
2021/04/20 02:46:43;;;;;;;18.00;9.63;;;5.50;84.70;;;;;;5029429;28;20398;-80
2021/04/20 02:49:10;;;;;;;17.38;9.30;;;5.50;84.60;;;;;;5030635;28;20375;-80
2021/04/20 02:51:38;;;;;;;16.60;9.07;;;5.40;84.70;;;;;;5030650;28;20403;-80
2021/04/20 02:54:05;;;;;;;19.45;9.85;;;5.30;85.20;;;;;;5031309;28;20440;-80
2021/04/20 02:56:32;;;;;;;18.48;10.15;;;5.30;84.90;;;;;;5029095;28;20388;-80
2021/04/20 02:59:03;;;;;;;17.85;9.55;;;5.30;85.70;;;;;;5031000;28;20478;-82
2021/04/20 03:01:36;;;;;;;18.38;9.45;;;5.30;85.70;;;;;;5029362;28;20395;-79
2021/04/20 03:04:02;;;;;;;16.63;9.63;;;5.40;85.20;;;;;;5029723;28;20970;-80
2021/04/20 03:06:28;;;;;;;16.90;8.60;;;5.30;85.20;;;;;;5030226;28;20476;-80
2021/04/20 03:08:54;;;;;;;18.58;9.25;;;5.30;85.50;;;;;;5029554;28;20431;-80
2021/04/20 03:11:38;;;;;;;16.38;9.27;;;5.30;85.70;;;;;;5029887;28;20403;-81
2021/04/20 03:14:06;;;;;;;19.35;9.23;;;5.20;86.30;;;;;;5029250;28;20430;-80
2021/04/20 03:16:33;;;;;;;16.45;9.35;;;5.30;85.30;;;;;;5028701;28;20395;-81
2021/04/20 03:19:02;;;;;;;16.17;9.35;;;5.40;85.00;;;;;;5029052;28;20395;-80
2021/04/20 03:21:29;;;;;;;20.60;9.23;;;5.30;85.10;;;;;;5029483;28;20532;-80
2021/04/20 03:23:56;;;;;;;19.02;9.32;;;5.30;85.20;;;;;;5030315;28;20372;-81
2021/04/20 03:26:24;;;;;;;16.73;9.18;;;5.40;85.20;;;;;;5030772;28;20375;-80
2021/04/20 03:29:03;;;;;;;19.45;9.07;;;5.40;85.10;;;;;;5030034;28;20387;-80
2021/04/20 03:31:29;;;;;;;17.40;9.70;;;5.40;84.90;;;;;;5029247;28;20422;-81
2021/04/20 03:34:01;;;;;;;18.30;9.40;;;5.30;85.10;;;;;;5028729;28;20388;-81
2021/04/20 03:36:33;;;;;;;20.08;10.07;;;5.20;85.40;;;;;;5029906;28;20398;-81
2021/04/20 03:39:16;;;;;;;17.25;9.13;;;5.20;85.60;;;;;;5029011;28;20398;-80
2021/04/20 03:41:59;;;;;;;18.48;9.57;;;5.20;85.50;;;;;;5028793;28;20890;-81
2021/04/20 03:44:38;;;;;;;15.65;8.80;;;5.30;85.20;;;;;;5029042;28;20501;-81
2021/04/20 03:47:08;;;;;;;18.20;9.45;;;5.20;85.20;;;;;;5028485;28;20395;-80
2021/04/20 03:49:37;;;;;;;17.57;9.87;;;5.20;85.10;;;;;;5030371;28;20371;-80
2021/04/20 03:52:10;;;;;;;17.85;9.65;;;5.00;86.10;;;;;;5028496;28;20407;-80
2021/04/20 03:54:37;;;;;;;16.10;9.60;;;5.00;85.90;;;;;;5028729;28;20386;-80
2021/04/20 03:57:03;;;;;;;19.02;9.13;;;5.10;85.50;;;;;;5028661;28;20398;-83
2021/04/20 03:59:31;;;;;;;15.95;9.30;;;5.10;85.10;;;;;;5030197;28;20437;-80
2021/04/20 04:01:59;;;;;;;18.67;9.18;;;5.10;85.10;;;;;;5029977;28;20387;-81
2021/04/20 04:04:27;;;;;;;16.08;8.77;;;5.00;85.30;;;;;;5030098;28;20383;-81
2021/04/20 04:06:54;;;;;;;20.63;9.05;;;5.10;85.30;;;;;;5029023;28;20395;-80
2021/04/20 04:09:20;;;;;;;16.20;9.57;;;5.00;85.20;;;;;;5028023;28;20389;-79
2021/04/20 04:12:00;;;;;;;17.58;8.70;;;4.90;85.70;;;;;;5029935;28;20501;-81
2021/04/20 04:14:29;;;;;;;17.30;8.32;;;4.90;85.20;;;;;;5029814;28;20815;-81
2021/04/20 04:17:00;;;;;;;18.48;9.38;;;4.90;85.30;;;;;;5029157;28;20394;-82
2021/04/20 04:19:33;;;;;;;18.30;9.25;;;5.00;85.20;;;;;;5030359;28;20498;-80
2021/04/20 04:22:14;;;;;;;18.35;8.88;;;4.90;85.20;;;;;;5028525;28;21015;-80
2021/04/20 04:24:53;;;;;;;19.27;9.05;;;4.90;85.50;;;;;;5029240;28;20403;-80
2021/04/20 04:27:22;;;;;;;23.60;9.38;;;4.80;85.60;;;;;;5029340;28;20375;-80
2021/04/20 04:29:48;;;;;;;22.53;10.83;;;4.70;85.80;;;;;;5031528;28;20941;-82
2021/04/20 04:32:18;;;;;;;18.27;10.43;;;4.60;86.10;;;;;;5032008;28;20428;-80
2021/04/20 04:34:46;;;;;;;18.42;10.52;;;4.70;86.20;;;;;;5033649;28;20910;-81
2021/04/20 04:37:13;;;;;;;19.33;10.25;;;4.80;85.80;;;;;;5031874;28;20440;-82
2021/04/20 04:39:41;;;;;;;19.95;10.70;;;4.80;85.50;;;;;;5032171;28;20998;-80
2021/04/20 04:42:07;;;;;;;18.80;9.88;;;4.80;85.70;;;;;;5036205;28;20858;-80
2021/04/20 04:44:33;;;;;;;18.17;10.13;;;4.80;86.30;;;;;;5044870;28;20401;-80
2021/04/20 04:46:59;;;;;;;16.63;9.40;;;4.80;86.30;;;;;;5051794;28;20374;-80
2021/04/20 04:49:27;;;;;;;19.00;10.30;;;4.80;85.90;;;;;;5047862;28;20381;-80
2021/04/20 04:51:54;;;;;;;20.73;10.40;;;4.90;86.10;;;;;;5045811;28;20533;-81
2021/04/20 04:54:21;;;;;;;21.23;10.82;;;4.70;86.50;;;;;;5051169;28;20394;-80
2021/04/20 04:56:48;;;;;;;19.52;10.45;;;4.60;87.40;;;;;;5045712;28;20501;-81
2021/04/20 04:59:17;;;;;;;21.17;10.95;;;4.50;87.20;;;;;;5051580;28;20423;-82
2021/04/20 05:01:44;;;;;;;19.48;11.77;;;4.70;87.20;;;;;;5053277;28;20396;-80
2021/04/20 05:04:12;;;;;;;23.80;11.45;;;4.60;87.20;;;;;;5051790;28;20389;-80
2021/04/20 05:06:45;;;;;;;19.33;11.20;;;4.70;87.40;;;;;;5051333;28;20409;-80
2021/04/20 05:09:13;;;;;;;22.13;11.07;;;4.60;87.80;;;;;;5051654;28;20393;-81
2021/04/20 05:11:43;;;;;;;21.50;11.10;;;4.80;86.90;;;;;;5045789;28;20417;-81
2021/04/20 05:14:14;;;;;;;21.73;11.77;;;4.90;86.70;;;;;;5031875;28;20402;-81
2021/04/20 05:16:40;;;;;;;22.42;11.15;;;4.80;86.90;;;;;;5031212;28;20419;-80
2021/04/20 05:19:10;;;;;;;22.63;11.20;;;4.90;86.80;;;;;;5034399;28;20387;-81
2021/04/20 05:21:38;;;;;;;20.02;11.25;;;4.90;86.70;;;;;;5032483;28;20891;-80
2021/04/20 05:24:04;;;;;;;26.40;11.55;;;4.90;86.70;;;;;;5032823;28;20379;-82
2021/04/20 05:26:31;;;;;;;22.15;11.35;;;4.90;86.50;;;;;;5030963;28;20720;-80
2021/04/20 05:29:00;;;;;;;22.52;11.80;;;4.90;86.60;;;;;;5032125;28;20390;-81
2021/04/20 05:31:27;;;;;;;20.23;11.50;;;4.90;86.80;;;;;;5032797;28;20407;-80
2021/04/20 05:34:00;;;;;;;22.45;12.05;;;4.90;87.00;;;;;;5031255;28;20402;-81
2021/04/20 05:36:27;;;;;;;23.58;11.88;;;4.90;87.40;;;;;;5033713;28;20462;-81
2021/04/20 05:38:54;;;;;;;24.00;12.27;;;5.00;88.00;;;;;;5030977;28;20383;-81
2021/04/20 05:41:28;;;;;;;34.10;17.00;;;5.10;88.00;;;;;;5032207;28;20387;-81
2021/04/20 05:43:55;;;;;;;44.53;20.08;;;5.10;87.40;;;;;;5032427;28;20518;-82
2021/04/20 05:46:21;;;;;;;37.65;19.63;;;5.10;87.80;;;;;;5032382;28;20409;-82
2021/04/20 05:48:48;;;;;;;34.20;18.30;;;5.10;88.20;;;;;;5030549;28;20433;-82
2021/04/20 05:51:15;;;;;;;33.67;17.33;;;5.20;88.20;;;;;;5032177;28;20411;-81
2021/04/20 05:53:41;;;;;;;32.60;16.23;;;5.30;88.40;;;;;;5030966;28;20430;-81
2021/04/20 05:56:07;;;;;;;30.80;15.82;;;5.40;87.40;;;;;;5030531;28;20418;-82
2021/04/20 05:58:33;;;;;;;27.13;15.17;;;5.40;86.90;;;;;;5036712;28;20735;-82
2021/04/20 06:01:01;;;;;;;29.58;14.82;;;5.40;86.70;;;;;;5049103;28;20397;-82
2021/04/20 06:03:28;;;;;;;28.15;15.15;;;5.50;86.30;;;;;;5032322;28;20379;-83
2021/04/20 06:05:56;;;;;;;27.05;14.98;;;5.60;86.00;;;;;;5029517;28;20906;-82
2021/04/20 06:08:24;;;;;;;30.85;15.95;;;5.60;86.40;;;;;;5032108;28;20456;-82
2021/04/20 06:10:50;;;;;;;30.58;16.70;;;5.60;87.70;;;;;;5051280;28;20417;-83
2021/04/20 06:13:16;;;;;;;33.40;17.77;;;5.80;88.20;;;;;;5050465;28;20885;-82
2021/04/20 06:15:42;;;;;;;33.30;17.27;;;5.90;88.80;;;;;;5051951;28;20448;-84
2021/04/20 06:18:08;;;;;;;30.70;16.73;;;6.00;88.60;;;;;;5050787;28;20469;-80
2021/04/20 06:20:34;;;;;;;38.30;18.98;;;6.10;88.40;;;;;;5052429;28;20477;-81
2021/04/20 06:23:01;;;;;;;38.23;18.73;;;6.10;88.50;;;;;;5051343;28;20443;-81
2021/04/20 06:25:28;;;;;;;34.88;18.45;;;6.30;88.70;;;;;;5051834;28;20394;-80
2021/04/20 06:27:54;;;;;;;30.10;16.67;;;6.40;88.40;;;;;;5050142;28;20389;-83
2021/04/20 06:30:21;;;;;;;32.28;16.92;;;6.40;87.70;;;;;;5050756;28;20402;-82
2021/04/20 06:32:48;;;;;;;29.60;17.05;;;6.60;87.50;;;;;;5048093;28;20382;-80
2021/04/20 06:35:16;;;;;;;33.70;17.80;;;6.80;87.20;;;;;;5048390;28;20401;-81
2021/04/20 06:37:44;;;;;;;31.55;16.75;;;6.90;87.30;;;;;;5047537;28;20394;-84
2021/04/20 06:40:16;;;;;;;28.20;16.15;;;7.00;87.00;;;;;;5049401;28;20814;-81
2021/04/20 06:42:48;;;;;;;32.20;16.08;;;7.10;86.20;;;;;;5048046;28;20468;-82
2021/04/20 06:45:19;;;;;;;25.55;14.65;;;7.20;85.30;;;;;;5049756;28;20385;-81
2021/04/20 06:47:53;;;;;;;28.63;15.83;;;7.30;85.10;;;;;;5049215;28;20870;-81
2021/04/20 06:50:21;;;;;;;32.13;15.73;;;7.40;84.60;;;;;;5051026;28;20413;-82
2021/04/20 06:53:07;;;;;;;26.25;14.48;;;7.70;83.70;;;;;;5050427;28;20413;-81
2021/04/20 06:56:06;;;;;;;27.15;15.18;;;7.80;82.60;;;;;;5050969;28;20389;-81
2021/04/20 06:58:58;;;;;;;25.48;13.68;;;8.00;81.70;;;;;;5049239;28;20480;-81
2021/04/20 07:01:38;;;;;;;25.10;14.47;;;8.00;81.10;;;;;;5049895;28;20389;-82
2021/04/20 07:04:39;;;;;;;24.75;13.75;;;8.10;80.40;;;;;;5050562;28;20908;-81
2021/04/20 07:07:33;;;;;;;24.13;14.30;;;8.20;79.30;;;;;;5049676;28;20397;-81
2021/04/20 07:10:19;;;;;;;24.27;14.07;;;8.30;79.00;;;;;;5030516;28;20430;-81
2021/04/20 07:12:48;;;;;;;23.35;13.45;;;8.50;78.80;;;;;;5028894;28;20395;-81
2021/04/20 07:15:18;;;;;;;22.27;13.05;;;8.70;77.40;;;;;;5030412;28;20410;-82
2021/04/20 07:18:05;;;;;;;21.67;13.25;;;8.70;76.20;;;;;;5030741;28;20378;-79
2021/04/20 07:20:43;;;;;;;22.90;13.82;;;8.80;75.80;;;;;;5029694;28;20490;-84
2021/04/20 07:23:24;;;;;;;23.80;13.02;;;9.10;74.20;;;;;;5029328;28;20402;-80
2021/04/20 07:26:00;;;;;;;24.65;12.85;;;9.40;72.70;;;;;;5029430;28;20446;-77
2021/04/20 07:28:36;;;;;;;22.98;13.35;;;9.40;72.60;;;;;;5029301;28;20794;-79
2021/04/20 07:31:14;;;;;;;20.75;12.75;;;9.40;73.00;;;;;;5031055;28;20411;-79
2021/04/20 07:34:03;;;;;;;21.52;13.32;;;9.60;70.90;;;;;;5030731;28;20395;-82
2021/04/20 07:37:06;;;;;;;20.05;12.52;;;9.60;72.70;;;;;;5030689;28;20441;-82
2021/04/20 07:39:48;;;;;;;19.73;13.13;;;9.80;72.60;;;;;;5030514;28;20441;-81
2021/04/20 07:42:35;;;;;;;22.27;12.80;;;9.90;72.20;;;;;;5029711;28;20426;-80
2021/04/20 07:45:15;;;;;;;28.95;15.52;;;9.90;71.00;;;;;;5028330;28;20395;-81
2021/04/20 07:47:47;;;;;;;19.80;12.03;;;9.90;71.10;;;;;;5029772;28;20872;-81
2021/04/20 07:50:24;;;;;;;20.70;12.00;;;10.30;70.80;;;;;;5045016;28;20952;-82
2021/04/20 07:53:29;;;;;;;18.65;11.38;;;10.30;68.90;;;;;;5028389;28;20488;-82
2021/04/20 07:56:07;;;;;;;21.35;11.88;;;10.50;67.70;;;;;;4990819;28;20397;-81
2021/04/20 07:58:43;;;;;;;20.90;11.90;;;10.50;68.80;;;;;;5027041;28;20580;-81
2021/04/20 08:01:27;;;;;;;20.05;11.43;;;10.70;67.20;;;;;;5029103;28;20410;-82
2021/04/20 08:04:08;;;;;;;18.92;11.70;;;10.70;67.30;;;;;;5033188;28;20473;-81
2021/04/20 08:06:37;;;;;;;20.02;11.35;;;10.70;68.40;;;;;;5032381;28;20460;-81
2021/04/20 08:09:09;;;;;;;20.25;11.38;;;10.70;67.20;;;;;;5034088;28;20437;-81
2021/04/20 08:11:42;;;;;;;19.63;11.17;;;10.90;66.00;;;;;;5037361;28;20409;-81
2021/04/20 08:14:33;;;;;;;18.23;11.18;;;10.90;65.90;;;;;;5037432;28;20791;-81
2021/04/20 08:17:10;;;;;;;19.63;11.60;;;11.10;67.20;;;;;;5031716;28;20435;-81
2021/04/20 08:19:42;;;;;;;18.67;11.65;;;11.20;67.00;;;;;;5032030;28;20399;-81
2021/04/20 08:22:12;;;;;;;19.13;12.25;;;11.20;66.50;;;;;;5032328;28;20395;-81
2021/04/20 08:24:53;;;;;;;19.95;11.27;;;11.40;65.20;;;;;;5048880;28;20387;-80
2021/04/20 08:27:36;;;;;;;19.70;10.53;;;11.40;64.50;;;;;;5032267;28;20387;-81
2021/04/20 08:30:26;;;;;;;19.43;11.63;;;11.80;60.50;;;;;;5032213;28;20427;-80
2021/04/20 08:32:52;;;;;;;18.05;11.88;;;11.60;63.00;;;;;;5032328;28;20438;-80
2021/04/20 08:35:19;;;;;;;19.85;11.60;;;11.50;62.10;;;;;;5033643;28;20449;-82
2021/04/20 08:38:03;;;;;;;18.00;11.15;;;11.80;64.50;;;;;;5031857;28;20437;-80
2021/04/20 08:41:07;;;;;;;17.05;10.75;;;12.00;62.10;;;;;;5034085;28;20395;-79
2021/04/20 08:43:54;;;;;;;18.73;11.20;;;12.00;61.20;;;;;;5032518;28;20932;-80
2021/04/20 08:46:40;;;;;;;20.38;11.82;;;12.00;61.40;;;;;;5033779;28;20387;-79
2021/04/20 08:49:12;;;;;;;21.27;11.88;;;12.10;61.10;;;;;;5032323;28;20883;-79
2021/04/20 08:51:53;;;;;;;19.70;11.93;;;12.20;60.40;;;;;;5033461;28;20407;-79
2021/04/20 08:54:26;;;;;;;20.80;11.38;;;12.30;60.70;;;;;;5033964;28;20395;-80
2021/04/20 08:57:00;;;;;;;21.08;11.93;;;12.80;58.70;;;;;;5031785;28;20394;-79
2021/04/20 08:59:52;;;;;;;19.88;12.07;;;12.90;60.40;;;;;;5033714;28;20424;-80
2021/04/20 09:02:44;;;;;;;20.70;12.00;;;13.00;59.80;;;;;;5032961;28;20463;-79
2021/04/20 09:05:18;;;;;;;21.50;12.63;;;13.10;57.20;;;;;;5033136;28;20395;-80
2021/04/20 09:07:53;;;;;;;21.25;12.63;;;13.20;62.80;;;;;;5031642;28;20414;-79
2021/04/20 09:10:50;;;;;;;20.70;12.85;;;13.80;59.30;;;;;;5031335;28;20414;-80
2021/04/20 09:13:20;;;;;;;19.33;12.80;;;14.20;58.80;;;;;;5032006;28;20402;-80
2021/04/20 09:15:57;;;;;;;19.08;11.85;;;14.10;57.50;;;;;;5030654;28;20783;-78
2021/04/20 09:18:32;;;;;;;20.02;12.68;;;14.60;57.80;;;;;;5031177;28;20811;-80
2021/04/20 09:21:05;;;;;;;18.73;13.10;;;14.10;56.20;;;;;;5033039;28;20481;-79
2021/04/20 09:24:08;;;;;;;17.95;11.40;;;14.00;55.60;;;;;;5031512;28;20402;-80
2021/04/20 09:26:46;;;;;;;20.48;11.65;;;14.10;55.20;;;;;;5031212;28;20388;-79
2021/04/20 09:29:28;;;;;;;21.75;11.88;;;14.60;55.30;;;;;;5031156;28;20430;-79
2021/04/20 09:31:59;;;;;;;17.77;12.43;;;14.80;55.90;;;;;;5032515;28;20506;-79
2021/04/20 09:34:39;;;;;;;19.70;12.07;;;14.60;54.60;;;;;;5031450;28;20418;-81
2021/04/20 09:37:07;;;;;;;17.40;11.85;;;15.10;56.20;;;;;;5031843;28;20399;-80
2021/04/20 09:39:39;;;;;;;21.00;12.05;;;15.20;53.80;;;;;;5047952;28;20395;-79
2021/04/20 09:42:07;;;;;;;21.13;12.37;;;15.30;53.70;;;;;;5032508;28;20470;-78
2021/04/20 09:44:50;;;;;;;20.63;12.90;;;15.10;53.20;;;;;;5032633;28;20474;-78
2021/04/20 09:47:43;;;;;;;22.13;11.88;;;14.90;53.00;;;;;;5030486;28;20394;-79
2021/04/20 09:50:30;;;;;;;19.02;11.75;;;15.00;54.00;;;;;;5030756;28;20779;-79
2021/04/20 09:53:02;;;;;;;18.57;11.83;;;15.20;51.90;;;;;;5031056;28;20480;-79
2021/04/20 09:55:49;;;;;;;18.73;11.77;;;15.60;52.60;;;;;;5032106;28;20399;-80
2021/04/20 09:58:19;;;;;;;21.70;11.15;;;16.10;52.00;;;;;;5030386;28;20449;-79
2021/04/20 10:00:46;;;;;;;19.75;12.32;;;15.90;54.10;;;;;;5047260;28;20743;-82
2021/04/20 10:03:21;;;;;;;20.27;12.65;;;16.30;51.30;;;;;;5032086;28;20387;-80
2021/04/20 10:06:25;;;;;;;18.00;12.15;;;16.80;51.40;;;;;;5031119;28;20452;-80
2021/04/20 10:09:16;;;;;;;19.00;11.15;;;16.90;51.30;;;;;;5030297;28;20403;-80
2021/04/20 10:11:53;;;;;;;19.70;12.20;;;16.80;49.80;;;;;;5030643;28;20446;-79
2021/04/20 10:14:22;;;;;;;16.20;10.63;;;16.40;51.00;;;;;;5031735;28;20390;-77
2021/04/20 10:17:10;;;;;;;19.98;11.70;;;15.90;48.90;;;;;;5031164;28;20898;-78
2021/04/20 10:19:41;;;;;;;17.77;11.00;;;16.00;49.20;;;;;;5029517;28;20442;-79
2021/04/20 10:22:19;;;;;;;22.57;13.80;;;16.90;48.70;;;;;;5044393;28;20421;-78
2021/04/20 10:25:27;;;;;;;19.20;11.73;;;16.20;49.20;;;;;;5049710;28;20410;-78
2021/04/20 10:28:28;;;;;;;19.65;12.40;;;16.10;49.10;;;;;;5049083;28;20402;-79
2021/04/20 10:30:59;;;;;;;21.80;12.77;;;16.40;50.10;;;;;;5044938;28;20405;-80
2021/04/20 10:33:26;;;;;;;20.15;13.23;;;16.70;47.10;;;;;;5049693;28;20393;-78
2021/04/20 10:35:57;;;;;;;18.10;12.65;;;15.80;51.00;;;;;;5050715;28;20389;-80
2021/04/20 10:38:29;;;;;;;18.83;11.93;;;16.50;52.00;;;;;;5049047;28;20416;-78
2021/04/20 10:40:55;;;;;;;18.10;12.63;;;16.20;49.20;;;;;;5043850;28;20773;-78
2021/04/20 10:43:23;;;;;;;17.80;11.13;;;16.00;50.20;;;;;;5038111;28;20393;-78
2021/04/20 10:45:51;;;;;;;24.77;14.27;;;16.10;53.80;;;;;;5050369;28;20472;-78
2021/04/20 10:48:24;;;;;;;21.50;12.95;;;15.80;51.00;;;;;;5050249;28;20382;-78
2021/04/20 10:50:55;;;;;;;21.80;11.82;;;16.20;50.70;;;;;;5049042;28;20425;-77
2021/04/20 10:53:31;;;;;;;17.60;11.32;;;16.40;52.10;;;;;;5048770;28;20390;-81
2021/04/20 10:56:12;;;;;;;20.65;12.73;;;17.00;50.40;;;;;;5051012;28;20825;-79
2021/04/20 10:58:45;;;;;;;19.40;12.40;;;16.80;47.90;;;;;;5048845;28;20722;-78
2021/04/20 11:01:18;;;;;;;20.75;12.82;;;17.50;48.90;;;;;;5048248;28;20389;-80
2021/04/20 11:03:46;;;;;;;20.85;13.10;;;17.60;47.50;;;;;;5049603;28;20397;-78
2021/04/20 11:06:49;;;;;;;20.38;12.45;;;17.80;49.30;;;;;;5051276;28;20376;-77
2021/04/20 11:09:15;;;;;;;19.83;12.75;;;18.10;47.60;;;;;;5050848;28;20885;-79
2021/04/20 11:11:41;;;;;;;20.30;12.33;;;17.50;46.20;;;;;;5050569;28;20459;-80
2021/04/20 11:14:06;;;;;;;17.27;11.63;;;17.80;47.20;;;;;;5049855;28;20396;-78
2021/04/20 11:16:42;;;;;;;21.52;12.73;;;18.40;44.60;;;;;;5050228;28;20413;-78
2021/04/20 11:19:11;;;;;;;20.83;12.30;;;18.30;44.90;;;;;;5050740;28;20430;-78
2021/04/20 11:21:41;;;;;;;21.33;12.93;;;17.90;46.20;;;;;;5050396;28;20438;-77
2021/04/20 11:24:20;;;;;;;28.42;16.10;;;17.30;45.10;;;;;;5049474;28;20425;-78
2021/04/20 11:26:53;;;;;;;18.02;12.25;;;16.90;48.00;;;;;;5050374;28;20683;-79
2021/04/20 11:29:28;;;;;;;18.35;12.40;;;16.90;50.10;;;;;;5049877;28;20900;-77
2021/04/20 11:31:57;;;;;;;21.85;11.57;;;16.40;46.60;;;;;;5050294;28;20401;-78
2021/04/20 11:34:27;;;;;;;20.60;12.40;;;16.80;47.40;;;;;;5048893;28;20699;-78
2021/04/20 11:36:57;;;;;;;23.58;13.38;;;17.00;49.20;;;;;;5048820;28;20905;-77
2021/04/20 11:39:28;;;;;;;25.98;15.45;;;16.90;48.80;;;;;;5038669;28;20620;-79
2021/04/20 11:42:12;;;;;;;27.95;15.05;;;16.70;47.30;;;;;;5039878;28;20409;-78
2021/04/20 11:45:03;;;;;;;32.05;17.25;;;16.40;48.20;;;;;;5039151;28;20387;-77
2021/04/20 11:47:29;;;;;;;24.42;13.40;;;16.30;49.10;;;;;;5030429;28;20400;-79
2021/04/20 11:50:04;;;;;;;27.00;14.38;;;16.30;48.10;;;;;;5039015;28;20390;-79
2021/04/20 11:52:33;;;;;;;21.23;12.88;;;16.20;48.20;;;;;;5039197;28;20411;-79
2021/04/20 11:55:06;;;;;;;24.00;12.95;;;16.20;48.00;;;;;;5033625;28;20433;-78
2021/04/20 11:57:34;;;;;;;22.02;12.20;;;16.40;47.50;;;;;;5029665;28;20736;-78
2021/04/20 12:00:04;;;;;;;25.17;13.40;;;16.70;48.80;;;;;;5029077;28;20391;-79
2021/04/20 12:02:30;;;;;;;53.30;25.95;;;16.60;46.10;;;;;;5030086;28;20387;-78
2021/04/20 12:05:05;;;;;;;19.23;11.88;;;17.10;50.40;;;;;;5028479;28;20395;-79
2021/04/20 12:07:33;;;;;;;20.33;11.95;;;17.10;45.40;;;;;;5027398;28;20535;-80
2021/04/20 12:09:59;;;;;;;17.63;11.03;;;17.00;46.00;;;;;;5029637;28;20883;-80
2021/04/20 12:12:27;;;;;;;16.10;10.70;;;17.10;48.20;;;;;;5028911;28;20974;-79
2021/04/20 12:14:53;;;;;;;17.85;11.57;;;17.60;46.20;;;;;;5029999;28;20754;-80
2021/04/20 12:17:31;;;;;;;23.08;12.82;;;17.50;45.00;;;;;;5028510;28;20410;-80
2021/04/20 12:20:03;;;;;;;22.70;11.90;;;17.00;44.20;;;;;;5028591;28;20471;-79
2021/04/20 12:22:29;;;;;;;18.73;11.43;;;17.00;47.70;;;;;;5030312;28;20391;-80
2021/04/20 12:24:57;;;;;;;18.75;10.98;;;17.30;45.60;;;;;;5028531;28;20392;-79
2021/04/20 12:27:24;;;;;;;18.52;11.52;;;17.60;47.70;;;;;;5028042;28;20395;-80
2021/04/20 12:29:51;;;;;;;17.35;11.63;;;17.70;45.60;;;;;;5028808;28;20486;-80
2021/04/20 12:32:23;;;;;;;19.13;11.40;;;17.40;44.70;;;;;;5029832;28;20418;-80
2021/04/20 12:34:59;;;;;;;18.35;11.10;;;17.60;45.10;;;;;;5028780;28;20476;-80
2021/04/20 12:37:28;;;;;;;19.75;11.90;;;17.70;45.00;;;;;;5029393;28;20467;-80
2021/04/20 12:40:09;;;;;;;20.38;11.45;;;17.60;44.00;;;;;;5030044;28;20371;-79
2021/04/20 12:42:40;;;;;;;18.90;12.48;;;17.60;46.80;;;;;;5029846;28;20379;-80
2021/04/20 12:45:12;;;;;;;20.63;11.73;;;17.50;44.50;;;;;;5028834;28;20383;-78
2021/04/20 12:47:39;;;;;;;20.33;11.98;;;17.30;45.40;;;;;;5028277;28;20779;-78
2021/04/20 12:50:10;;;;;;;20.83;11.73;;;17.10;46.80;;;;;;5029652;28;20441;-78
2021/04/20 12:52:39;;;;;;;19.98;11.52;;;17.00;46.10;;;;;;5033831;28;20474;-78
2021/04/20 12:55:09;;;;;;;17.85;11.75;;;16.80;45.90;;;;;;5033198;28;20472;-79
2021/04/20 12:57:40;;;;;;;19.33;11.87;;;17.00;45.30;;;;;;5033419;28;20390;-78
2021/04/20 13:00:20;;;;;;;18.83;12.18;;;16.80;44.70;;;;;;5033311;28;20432;-79
2021/04/20 13:02:48;;;;;;;20.63;12.52;;;16.80;45.70;;;;;;5033448;28;20410;-78